Time;durP1;ratioP1;P1;durP2;ratioP2;P2;SDS_P1;SDS_P2;PMS_P1;PMS_P2;Temp;Humidity;BMP_temperature;BMP_pressure;BME280_temperature;BME280_humidity;BME280_pressure;Samples;Min_cycle;Max_cycle;Signal;HPM_P1;HPM_P2
2021/06/03 00:00:48;;;;;;;0.60;0.60;;;20.50;48.20;;;;;;5018549;28;20025;-73
2021/06/03 00:03:14;;;;;;;1.27;0.60;;;20.50;48.30;;;;;;5036068;28;20030;-74
2021/06/03 00:05:42;;;;;;;0.57;0.57;;;20.50;48.50;;;;;;5036042;28;20021;-73
2021/06/03 00:08:08;;;;;;;0.40;0.40;;;20.40;48.60;;;;;;5036175;28;20025;-73
2021/06/03 00:10:37;;;;;;;0.40;0.40;;;20.40;48.80;;;;;;5036076;28;20394;-72
2021/06/03 00:13:06;;;;;;;0.82;0.63;;;20.30;49.00;;;;;;5035578;28;20040;-73
2021/06/03 00:15:34;;;;;;;0.50;0.50;;;20.30;49.10;;;;;;5035917;28;20052;-72
2021/06/03 00:18:00;;;;;;;0.57;0.57;;;20.20;49.20;;;;;;5035753;28;20128;-72
2021/06/03 00:20:30;;;;;;;0.50;0.50;;;20.20;49.40;;;;;;5018067;28;20025;-73
2021/06/03 00:22:56;;;;;;;0.57;0.57;;;20.10;49.50;;;;;;5035902;28;20029;-73
2021/06/03 00:25:22;;;;;;;0.32;0.32;;;20.10;49.70;;;;;;5036011;28;20489;-74
2021/06/03 00:27:48;;;;;;;0.50;0.50;;;20.00;49.70;;;;;;5035278;28;20049;-73
2021/06/03 00:30:14;;;;;;;0.55;0.35;;;20.00;49.90;;;;;;5035609;28;20032;-73
2021/06/03 00:32:40;;;;;;;0.50;0.50;;;20.00;50.00;;;;;;5035460;28;20493;-73
2021/06/03 00:35:07;;;;;;;0.60;0.60;;;19.90;50.10;;;;;;5035669;28;20017;-73
2021/06/03 00:37:33;;;;;;;0.55;0.55;;;19.80;50.20;;;;;;5035489;28;20025;-73
2021/06/03 00:39:59;;;;;;;1.27;0.60;;;19.80;50.40;;;;;;5035646;28;20021;-72
2021/06/03 00:42:25;;;;;;;0.80;0.80;;;19.70;50.50;;;;;;5034898;28;20033;-74
2021/06/03 00:44:51;;;;;;;0.60;0.60;;;19.70;50.70;;;;;;5035349;28;20026;-74
2021/06/03 00:47:16;;;;;;;0.60;0.60;;;19.70;50.70;;;;;;5035179;28;20083;-74
2021/06/03 00:49:42;;;;;;;0.60;0.60;;;19.70;50.80;;;;;;5035610;28;20021;-73
2021/06/03 00:52:08;;;;;;;0.50;0.50;;;19.60;51.00;;;;;;5035309;28;20029;-73
2021/06/03 00:54:33;;;;;;;0.60;0.60;;;19.60;51.10;;;;;;5035230;28;20029;-73
2021/06/03 00:56:59;;;;;;;0.70;0.70;;;19.60;51.30;;;;;;5016950;28;20475;-73
2021/06/03 00:59:25;;;;;;;0.70;0.70;;;19.50;51.40;;;;;;5035061;28;20373;-73
2021/06/03 01:01:50;;;;;;;0.73;0.70;;;19.50;51.40;;;;;;5035105;28;20033;-73
2021/06/03 01:04:20;;;;;;;0.60;0.50;;;19.50;51.50;;;;;;5035050;28;20026;-73
2021/06/03 01:06:46;;;;;;;0.50;0.50;;;19.50;51.60;;;;;;5034997;28;20399;-74
2021/06/03 01:09:28;;;;;;;0.77;0.70;;;19.40;51.70;;;;;;5034873;28;20505;-72
2021/06/03 01:12:24;;;;;;;0.68;0.68;;;19.40;51.90;;;;;;5034331;28;20055;-72
2021/06/03 01:14:58;;;;;;;0.45;0.45;;;19.30;51.90;;;;;;5035019;28;20017;-73
2021/06/03 01:17:26;;;;;;;0.60;0.60;;;19.30;52.00;;;;;;5034959;28;20033;-73
2021/06/03 01:19:53;;;;;;;0.40;0.40;;;19.30;52.10;;;;;;5034602;28;20049;-72
2021/06/03 01:23:04;;;;;;;0.63;0.63;;;19.20;52.30;;;;;;5034790;28;20432;-73
2021/06/03 01:25:30;;;;;;;0.57;0.47;;;19.20;52.30;;;;;;5034281;28;20042;-72
2021/06/03 01:27:56;;;;;;;0.50;0.50;;;19.10;52.40;;;;;;5034701;28;20018;-72
2021/06/03 01:30:25;;;;;;;0.60;0.60;;;19.20;52.50;;;;;;5016817;28;20029;-73
2021/06/03 01:33:04;;;;;;;0.55;0.55;;;19.20;52.60;;;;;;5034415;28;20030;-73
2021/06/03 01:35:42;;;;;;;0.65;0.50;;;19.20;52.60;;;;;;5034540;28;20075;-72
2021/06/03 01:38:12;;;;;;;0.77;0.60;;;19.20;52.60;;;;;;5034598;28;20025;-73
2021/06/03 01:40:40;;;;;;;0.32;0.32;;;19.20;52.80;;;;;;5034048;28;20394;-74
2021/06/03 01:43:07;;;;;;;0.40;0.40;;;19.20;52.80;;;;;;5033570;28;20511;-71
2021/06/03 01:45:33;;;;;;;0.30;0.30;;;19.20;52.90;;;;;;5034156;28;20344;-72
2021/06/03 01:48:00;;;;;;;0.32;0.32;;;19.20;53.00;;;;;;5034267;28;20025;-73
2021/06/03 01:50:26;;;;;;;0.50;0.50;;;19.20;53.20;;;;;;5034223;28;20563;-72
2021/06/03 01:52:52;;;;;;;0.40;0.40;;;19.10;53.30;;;;;;5034211;28;20501;-72
2021/06/03 01:55:18;;;;;;;0.38;0.38;;;19.10;53.40;;;;;;5033600;28;20018;-72
2021/06/03 01:57:45;;;;;;;0.40;0.40;;;19.10;53.40;;;;;;5033922;28;20034;-74
2021/06/03 02:00:13;;;;;;;0.38;0.38;;;19.10;53.50;;;;;;5033999;28;20085;-73
2021/06/03 02:02:39;;;;;;;0.52;0.52;;;19.10;53.70;;;;;;5016082;28;20044;-72
2021/06/03 02:05:05;;;;;;;0.43;0.40;;;19.10;53.70;;;;;;5033811;28;20017;-73
2021/06/03 02:07:32;;;;;;;0.32;0.32;;;19.10;53.80;;;;;;5033919;28;20072;-73
2021/06/03 02:09:58;;;;;;;0.55;0.55;;;19.00;53.80;;;;;;5033430;28;20386;-73
2021/06/03 02:12:25;;;;;;;0.30;0.30;;;19.00;53.90;;;;;;5033705;28;20037;-74
2021/06/03 02:14:53;;;;;;;0.60;0.60;;;19.00;54.00;;;;;;5033752;28;20082;-73
2021/06/03 02:17:28;;;;;;;0.73;0.47;;;19.00;54.40;;;;;;5033794;28;20032;-73
2021/06/03 02:20:10;;;;;;;0.65;0.65;;;19.00;54.10;;;;;;5033994;28;20037;-73
2021/06/03 02:22:36;;;;;;;0.52;0.52;;;19.10;54.20;;;;;;5033120;28;20033;-74
2021/06/03 02:25:04;;;;;;;0.35;0.35;;;19.10;54.20;;;;;;5033496;28;20029;-73
2021/06/03 02:27:30;;;;;;;0.40;0.40;;;19.10;54.30;;;;;;5033467;28;20021;-73
2021/06/03 02:29:56;;;;;;;0.50;0.50;;;19.00;54.30;;;;;;5033544;28;20163;-72
2021/06/03 02:32:22;;;;;;;0.45;0.45;;;19.00;54.40;;;;;;5033414;28;20100;-73
2021/06/03 02:34:49;;;;;;;0.40;0.40;;;19.00;54.60;;;;;;5033404;28;20437;-73
2021/06/03 02:37:16;;;;;;;0.45;0.40;;;19.00;54.60;;;;;;5032776;28;20021;-74
2021/06/03 02:39:44;;;;;;;0.40;0.40;;;19.00;54.70;;;;;;5033389;28;20109;-73
2021/06/03 02:42:11;;;;;;;0.50;0.40;;;19.00;54.80;;;;;;5033220;28;20025;-73
2021/06/03 02:44:38;;;;;;;0.40;0.40;;;18.90;54.90;;;;;;5033294;28;20480;-73
2021/06/03 02:47:05;;;;;;;0.38;0.38;;;18.90;55.00;;;;;;5033214;28;20485;-73
2021/06/03 02:49:31;;;;;;;0.38;0.30;;;18.90;55.00;;;;;;5015420;28;20032;-73
2021/06/03 02:52:01;;;;;;;0.60;0.60;;;18.90;55.10;;;;;;5032674;28;20482;-74
2021/06/03 02:54:27;;;;;;;0.60;0.60;;;19.00;55.20;;;;;;5033036;28;20116;-73
2021/06/03 02:56:53;;;;;;;0.55;0.55;;;19.00;55.10;;;;;;5033139;28;20109;-73
2021/06/03 02:59:18;;;;;;;0.38;0.38;;;19.00;55.10;;;;;;5033063;28;20096;-73
2021/06/03 03:01:44;;;;;;;0.40;0.40;;;19.00;55.10;;;;;;5033010;28;20033;-73
2021/06/03 03:04:09;;;;;;;0.80;0.80;;;19.10;55.20;;;;;;5033227;28;20486;-72
2021/06/03 03:06:35;;;;;;;0.60;0.60;;;19.10;55.20;;;;;;5032453;28;20028;-72
2021/06/03 03:09:00;;;;;;;0.50;0.50;;;19.20;55.20;;;;;;5033038;28;20083;-73
2021/06/03 03:11:26;;;;;;;0.32;0.32;;;19.20;55.20;;;;;;5032895;28;20025;-72
2021/06/03 03:13:51;;;;;;;0.32;0.32;;;19.20;55.30;;;;;;5032917;28;20033;-73
2021/06/03 03:16:17;;;;;;;0.40;0.40;;;19.20;55.30;;;;;;5015200;28;20017;-74
2021/06/03 03:18:42;;;;;;;0.32;0.32;;;19.20;55.40;;;;;;5015038;28;20041;-73
2021/06/03 03:21:08;;;;;;;0.40;0.40;;;19.20;55.50;;;;;;5032509;28;20032;-73
2021/06/03 03:23:33;;;;;;;0.57;0.57;;;19.20;55.60;;;;;;5015075;28;20033;-73
2021/06/03 03:25:59;;;;;;;0.70;0.70;;;19.20;55.60;;;;;;5032889;28;20028;-73
2021/06/03 03:28:24;;;;;;;0.40;0.40;;;19.20;55.70;;;;;;5032801;28;20021;-72
2021/06/03 03:30:50;;;;;;;0.52;0.52;;;19.20;55.80;;;;;;5032798;28;20053;-72
2021/06/03 03:33:16;;;;;;;0.40;0.40;;;19.20;55.80;;;;;;5032652;28;20037;-74
2021/06/03 03:35:46;;;;;;;0.35;0.35;;;19.20;55.90;;;;;;5032217;28;20101;-73
2021/06/03 03:38:13;;;;;;;0.60;0.60;;;19.20;56.10;;;;;;5032983;28;20097;-74
2021/06/03 03:40:38;;;;;;;0.50;0.50;;;19.10;56.20;;;;;;5032624;28;20474;-72
2021/06/03 03:43:04;;;;;;;0.40;0.40;;;19.10;56.40;;;;;;5032533;28;20081;-73
2021/06/03 03:45:31;;;;;;;0.30;0.30;;;19.10;56.60;;;;;;5032724;28;20055;-73
2021/06/03 03:47:57;;;;;;;0.40;0.40;;;19.00;56.60;;;;;;5032579;28;20017;-73
2021/06/03 03:50:23;;;;;;;0.50;0.50;;;19.00;56.80;;;;;;5032100;28;20021;-73
2021/06/03 03:52:49;;;;;;;0.60;0.60;;;18.90;56.80;;;;;;5032550;28;20051;-73
2021/06/03 03:55:16;;;;;;;0.60;0.60;;;18.90;56.90;;;;;;5032562;28;20032;-72
2021/06/03 03:57:43;;;;;;;0.55;0.52;;;18.90;57.10;;;;;;5032502;28;20105;-73
2021/06/03 04:00:14;;;;;;;0.73;0.73;;;18.80;57.30;;;;;;5032602;28;20033;-72
2021/06/03 04:02:39;;;;;;;0.63;0.63;;;18.70;57.50;;;;;;5032285;28;20088;-72
2021/06/03 04:05:06;;;;;;;0.75;0.75;;;18.70;57.60;;;;;;5031981;28;20339;-72
2021/06/03 04:07:32;;;;;;;1.02;0.73;;;18.70;57.70;;;;;;5035599;28;20139;-72
2021/06/03 04:09:58;;;;;;;0.75;0.75;;;18.70;57.70;;;;;;5018415;28;20103;-72
2021/06/03 04:12:23;;;;;;;0.55;0.55;;;18.70;57.80;;;;;;5036098;28;20061;-72
2021/06/03 04:14:49;;;;;;;0.38;0.38;;;18.70;57.80;;;;;;5036010;28;20033;-72
2021/06/03 04:17:14;;;;;;;0.70;0.70;;;18.70;57.90;;;;;;5035973;28;20076;-72
2021/06/03 04:19:40;;;;;;;0.68;0.47;;;18.70;57.90;;;;;;5035377;28;20519;-73
2021/06/03 04:22:05;;;;;;;0.60;0.60;;;18.70;58.00;;;;;;5035869;28;20033;-73
2021/06/03 04:24:31;;;;;;;0.47;0.47;;;18.60;58.10;;;;;;5035789;28;20064;-72
2021/06/03 04:26:57;;;;;;;0.57;0.57;;;18.70;58.20;;;;;;5035803;28;20109;-72
2021/06/03 04:29:22;;;;;;;0.30;0.30;;;18.70;58.20;;;;;;5035852;28;20022;-72
2021/06/03 04:31:48;;;;;;;0.65;0.65;;;18.70;58.20;;;;;;5035623;28;20481;-73
2021/06/03 04:34:13;;;;;;;0.80;0.70;;;18.80;58.20;;;;;;5017472;28;20025;-73
2021/06/03 04:36:39;;;;;;;0.55;0.55;;;18.80;58.20;;;;;;5035539;28;20049;-72
2021/06/03 04:39:05;;;;;;;0.95;0.95;;;18.80;58.10;;;;;;5035840;28;20100;-72
2021/06/03 04:41:30;;;;;;;0.82;0.75;;;18.90;58.20;;;;;;5035587;28;20025;-72
2021/06/03 04:43:56;;;;;;;0.73;0.73;;;18.90;58.30;;;;;;5035561;28;20032;-71
2021/06/03 04:46:22;;;;;;;0.60;0.60;;;19.00;58.30;;;;;;5035340;28;20492;-72
2021/06/03 04:48:47;;;;;;;0.77;0.77;;;19.10;58.20;;;;;;5035131;28;20112;-73
2021/06/03 04:51:13;;;;;;;0.60;0.60;;;19.20;58.10;;;;;;5035491;28;20093;-73
2021/06/03 04:53:38;;;;;;;0.60;0.60;;;19.30;58.00;;;;;;5035319;28;20125;-72
2021/06/03 04:56:04;;;;;;;0.60;0.60;;;19.40;57.90;;;;;;5035334;28;20076;-73
2021/06/03 04:58:29;;;;;;;0.85;0.82;;;19.50;57.90;;;;;;5035300;28;20079;-73
2021/06/03 05:00:55;;;;;;;0.47;0.47;;;19.60;57.90;;;;;;5035083;28;20542;-73
2021/06/03 05:03:21;;;;;;;0.60;0.60;;;19.60;57.90;;;;;;5034621;28;20419;-73
2021/06/03 05:05:47;;;;;;;0.50;0.50;;;19.70;58.00;;;;;;5035138;28;20024;-73
2021/06/03 05:08:12;;;;;;;0.55;0.50;;;19.70;58.00;;;;;;5034988;28;20032;-73
2021/06/03 05:10:38;;;;;;;0.80;0.70;;;19.80;58.70;;;;;;5017184;28;20034;-73
2021/06/03 05:13:05;;;;;;;0.50;0.50;;;19.80;58.10;;;;;;5034964;28;20026;-75
2021/06/03 05:15:31;;;;;;;0.70;0.70;;;19.90;58.30;;;;;;5034851;28;20064;-75
2021/06/03 05:17:57;;;;;;;0.45;0.45;;;19.80;58.40;;;;;;5033113;28;20076;-74
2021/06/03 05:20:25;;;;;;;0.60;0.60;;;19.80;58.50;;;;;;5034848;28;20063;-74
2021/06/03 05:22:52;;;;;;;0.75;0.55;;;19.80;58.70;;;;;;5034675;28;20462;-74
2021/06/03 05:25:20;;;;;;;0.52;0.52;;;19.80;58.80;;;;;;5034672;28;20075;-73
2021/06/03 05:27:46;;;;;;;0.80;0.73;;;19.80;58.90;;;;;;5034687;28;20033;-74
2021/06/03 05:30:13;;;;;;;0.70;0.70;;;19.70;59.10;;;;;;5034263;28;20029;-73
2021/06/03 05:32:39;;;;;;;0.55;0.45;;;19.70;59.30;;;;;;5016210;28;20389;-74
2021/06/03 05:35:07;;;;;;;0.63;0.63;;;19.60;59.30;;;;;;5016829;28;20525;-72
2021/06/03 05:37:33;;;;;;;0.70;0.70;;;19.60;59.40;;;;;;5034513;28;20025;-74
2021/06/03 05:39:58;;;;;;;0.80;0.80;;;19.60;59.60;;;;;;5034343;28;20028;-72
2021/06/03 05:42:24;;;;;;;0.80;0.80;;;19.60;59.80;;;;;;5034329;28;20067;-73
2021/06/03 05:44:50;;;;;;;1.23;1.05;;;19.60;59.90;;;;;;5016398;28;20025;-73
2021/06/03 05:47:15;;;;;;;0.98;0.88;;;19.50;60.00;;;;;;5034085;28;20028;-74
2021/06/03 05:49:41;;;;;;;0.70;0.70;;;19.50;60.00;;;;;;5016489;28;20022;-74
2021/06/03 05:52:07;;;;;;;0.80;0.80;;;19.50;60.10;;;;;;5034211;28;20029;-74
2021/06/03 05:54:33;;;;;;;1.20;1.10;;;19.50;60.20;;;;;;5034033;28;20029;-74
2021/06/03 05:56:59;;;;;;;0.93;0.85;;;19.50;60.20;;;;;;5034156;28;20378;-74
2021/06/03 05:59:25;;;;;;;1.00;1.00;;;19.60;60.30;;;;;;5016357;28;20474;-74
2021/06/03 06:01:54;;;;;;;0.70;0.70;;;19.60;60.30;;;;;;5033413;28;20049;-74
2021/06/03 06:06:48;;;;;;;1.35;0.95;;;19.60;60.40;;;;;;5033791;28;20037;-73
2021/06/03 06:09:14;;;;;;;0.98;0.98;;;19.70;60.50;;;;;;5016078;28;20440;-74
2021/06/03 06:11:42;;;;;;;0.90;0.90;;;19.70;61.20;;;;;;5033795;28;20086;-73
2021/06/03 06:14:08;;;;;;;0.90;0.90;;;19.80;60.70;;;;;;5033577;28;20095;-74
2021/06/03 06:16:34;;;;;;;1.30;1.20;;;19.80;60.80;;;;;;5033231;28;20466;-74
2021/06/03 06:19:01;;;;;;;1.05;0.95;;;19.80;60.90;;;;;;5029046;28;20191;-72
2021/06/03 06:21:26;;;;;;;1.02;0.95;;;19.80;61.00;;;;;;5033543;28;20139;-75
2021/06/03 06:23:52;;;;;;;1.10;1.10;;;19.90;61.00;;;;;;5033591;28;20513;-73
2021/06/03 06:26:19;;;;;;;1.08;1.05;;;20.00;60.90;;;;;;5033376;28;20024;-73
2021/06/03 06:28:45;;;;;;;1.33;0.98;;;20.20;60.90;;;;;;5033281;28;20540;-73
2021/06/03 06:31:14;;;;;;;1.27;1.17;;;20.30;60.80;;;;;;5032944;28;20033;-72
2021/06/03 06:33:40;;;;;;;1.27;1.10;;;20.40;60.70;;;;;;5033325;28;20528;-73
2021/06/03 06:36:07;;;;;;;1.52;1.42;;;20.50;60.70;;;;;;5033404;28;20029;-73
2021/06/03 06:38:33;;;;;;;1.52;1.42;;;20.60;60.70;;;;;;5033460;28;20500;-74
2021/06/03 06:40:59;;;;;;;0.82;0.82;;;20.60;60.70;;;;;;5033209;28;20030;-73
2021/06/03 06:43:25;;;;;;;1.75;1.25;;;20.70;60.70;;;;;;5032675;28;20056;-73
2021/06/03 06:45:51;;;;;;;1.25;1.15;;;20.80;60.70;;;;;;5033227;28;20386;-73
2021/06/03 06:48:17;;;;;;;1.30;1.20;;;20.90;60.70;;;;;;5033053;28;20048;-75
2021/06/03 06:50:45;;;;;;;1.20;1.10;;;20.90;60.70;;;;;;5033132;28;20026;-73
2021/06/03 06:53:11;;;;;;;1.38;1.10;;;21.00;60.70;;;;;;5032926;28;20025;-74
2021/06/03 06:55:36;;;;;;;1.98;1.30;;;21.20;60.80;;;;;;5015343;28;20029;-73
2021/06/03 06:58:03;;;;;;;1.55;1.45;;;21.20;60.90;;;;;;5032402;28;20033;-76
2021/06/03 07:00:32;;;;;;;1.10;1.00;;;21.30;60.90;;;;;;5033030;28;20373;-73
2021/06/03 07:02:58;;;;;;;1.55;1.45;;;21.40;60.90;;;;;;5032849;28;20563;-74
2021/06/03 07:05:25;;;;;;;2.08;1.98;;;21.40;61.00;;;;;;5033097;28;20103;-76
2021/06/03 07:07:51;;;;;;;1.52;1.33;;;21.40;61.10;;;;;;5033059;28;20080;-73
2021/06/03 07:10:17;;;;;;;1.35;1.25;;;21.50;61.20;;;;;;5032942;28;20406;-74
2021/06/03 07:12:43;;;;;;;1.95;1.63;;;21.60;61.20;;;;;;5032402;28;20058;-74
2021/06/03 07:15:11;;;;;;;1.63;1.38;;;21.60;61.10;;;;;;5032755;28;20064;-73
2021/06/03 07:17:38;;;;;;;1.63;1.52;;;21.70;61.10;;;;;;5015255;28;20052;-73
2021/06/03 07:20:11;;;;;;;1.40;1.30;;;21.80;61.10;;;;;;5032780;28;20474;-74
2021/06/03 07:22:38;;;;;;;1.35;1.25;;;21.80;61.20;;;;;;5032649;28;20390;-75
2021/06/03 07:25:06;;;;;;;1.73;1.27;;;21.80;61.40;;;;;;5033057;28;20025;-74
2021/06/03 07:27:32;;;;;;;2.28;1.63;;;21.80;61.40;;;;;;5014491;28;20026;-73
2021/06/03 07:30:00;;;;;;;1.63;1.50;;;21.90;61.40;;;;;;5032830;28;20017;-73
2021/06/03 07:32:26;;;;;;;1.55;1.45;;;22.00;61.40;;;;;;5032761;28;20025;-74
2021/06/03 07:34:52;;;;;;;1.75;1.38;;;22.20;61.20;;;;;;5032744;28;20036;-73
2021/06/03 07:37:17;;;;;;;2.65;1.80;;;22.40;61.10;;;;;;5032591;28;20463;-74
2021/06/03 07:39:43;;;;;;;1.63;1.52;;;22.50;60.90;;;;;;5032624;28;20026;-74
2021/06/03 07:42:11;;;;;;;1.52;1.42;;;22.60;60.80;;;;;;5034907;28;20195;-77
2021/06/03 07:44:37;;;;;;;1.60;1.50;;;22.60;60.70;;;;;;5036598;28;20052;-76
2021/06/03 07:47:03;;;;;;;2.00;1.80;;;22.70;60.70;;;;;;5036595;28;20036;-73
2021/06/03 07:49:29;;;;;;;2.53;1.92;;;22.70;60.80;;;;;;5036337;28;20026;-72
2021/06/03 07:51:54;;;;;;;1.80;1.67;;;22.60;60.90;;;;;;5036335;28;20029;-73
2021/06/03 07:54:20;;;;;;;2.60;1.65;;;22.60;61.40;;;;;;5036470;28;20026;-74
2021/06/03 07:56:45;;;;;;;1.50;1.40;;;22.60;61.40;;;;;;5035821;28;20474;-74
2021/06/03 07:59:11;;;;;;;1.52;1.38;;;22.60;61.60;;;;;;5036417;28;20509;-74
2021/06/03 08:01:37;;;;;;;1.52;1.33;;;22.60;61.50;;;;;;5036105;28;20036;-74
2021/06/03 08:04:02;;;;;;;1.75;1.50;;;22.70;61.50;;;;;;5036146;28;20100;-73
2021/06/03 08:06:28;;;;;;;1.65;1.55;;;22.80;61.40;;;;;;5036057;28;20485;-74
2021/06/03 08:08:53;;;;;;;1.42;1.30;;;22.80;61.40;;;;;;5036051;28;20034;-74
2021/06/03 08:11:19;;;;;;;1.50;1.20;;;23.00;61.20;;;;;;5035669;28;20018;-73
2021/06/03 08:13:44;;;;;;;1.75;1.40;;;23.20;61.00;;;;;;5035912;28;20029;-74
2021/06/03 08:16:10;;;;;;;2.00;1.50;;;23.30;60.80;;;;;;5036109;28;20104;-74
2021/06/03 08:18:35;;;;;;;1.27;1.17;;;23.40;60.70;;;;;;5035834;28;20056;-74
2021/06/03 08:21:03;;;;;;;2.60;1.65;;;23.50;60.60;;;;;;5035759;28;20022;-73
2021/06/03 08:23:29;;;;;;;2.22;1.65;;;23.60;60.40;;;;;;5035816;28;20478;-74
2021/06/03 08:25:56;;;;;;;1.98;1.45;;;23.80;60.40;;;;;;5035289;28;20029;-74
2021/06/03 08:28:25;;;;;;;1.90;1.50;;;23.80;60.20;;;;;;5035803;28;20059;-73
2021/06/03 08:30:52;;;;;;;1.65;1.55;;;23.80;60.20;;;;;;5035683;28;20026;-75
2021/06/03 08:33:19;;;;;;;2.42;1.40;;;23.80;60.50;;;;;;5035670;28;20065;-76
2021/06/03 08:35:45;;;;;;;1.98;1.77;;;23.70;61.40;;;;;;5035398;28;20017;-74
2021/06/03 08:38:14;;;;;;;1.50;1.40;;;23.70;60.80;;;;;;5035558;28;20026;-76
2021/06/03 08:40:46;;;;;;;1.73;1.60;;;23.70;60.90;;;;;;5035120;28;20017;-73
2021/06/03 08:43:15;;;;;;;1.40;1.02;;;23.80;60.80;;;;;;5035377;28;20452;-73
2021/06/03 08:45:44;;;;;;;1.42;1.33;;;23.90;60.80;;;;;;5017630;28;20386;-76
2021/06/03 08:48:10;;;;;;;1.73;1.30;;;24.00;60.60;;;;;;5035380;28;20363;-73
2021/06/03 08:50:40;;;;;;;1.52;1.33;;;24.10;60.60;;;;;;5035509;28;20025;-75
2021/06/03 08:53:06;;;;;;;2.03;1.23;;;24.20;60.50;;;;;;5035260;28;20021;-74
2021/06/03 08:58:21;;;;;;;1.25;1.15;;;24.50;60.30;;;;;;5035579;28;20053;-76
2021/06/03 09:00:48;;;;;;;1.73;1.42;;;24.50;60.40;;;;;;5035077;28;20025;-74
2021/06/03 09:03:14;;;;;;;2.70;1.70;;;24.30;60.40;;;;;;5035130;28;20481;-74
2021/06/03 09:05:41;;;;;;;1.42;1.33;;;24.20;60.50;;;;;;5035230;28;20101;-76
2021/06/03 09:08:26;;;;;;;1.70;1.60;;;24.10;60.80;;;;;;5034858;28;20032;-75
2021/06/03 09:10:53;;;;;;;1.17;1.08;;;24.00;60.90;;;;;;5035179;28;20033;-74
2021/06/03 09:13:25;;;;;;;1.20;1.08;;;24.10;61.00;;;;;;5035018;28;20022;-74
2021/06/03 09:16:02;;;;;;;1.73;1.30;;;24.20;60.80;;;;;;5017100;28;20033;-75
2021/06/03 09:18:36;;;;;;;1.25;1.17;;;24.30;60.60;;;;;;5034718;28;20127;-75
2021/06/03 09:21:35;;;;;;;2.17;1.73;;;24.30;60.50;;;;;;5017072;28;20497;-75
2021/06/03 09:24:03;;;;;;;1.75;1.42;;;24.40;60.40;;;;;;5034382;28;20390;-76
2021/06/03 09:26:31;;;;;;;1.40;1.30;;;24.40;60.40;;;;;;5034760;28;20018;-76
2021/06/03 09:28:59;;;;;;;1.45;1.27;;;24.40;60.40;;;;;;5034555;28;20045;-75
2021/06/03 09:31:28;;;;;;;1.70;1.50;;;24.60;60.30;;;;;;5034635;28;20105;-76
2021/06/03 09:34:07;;;;;;;1.38;1.10;;;24.70;60.20;;;;;;5034597;28;20492;-75
2021/06/03 09:36:40;;;;;;;1.73;1.63;;;24.80;60.10;;;;;;5034549;28;20027;-75
2021/06/03 09:39:20;;;;;;;1.85;1.65;;;25.00;59.90;;;;;;5016392;28;20030;-74
2021/06/03 09:41:50;;;;;;;1.48;1.38;;;25.10;59.90;;;;;;5034441;28;20119;-77
2021/06/03 09:44:39;;;;;;;2.17;1.98;;;25.20;59.70;;;;;;5034293;28;20022;-75
2021/06/03 09:47:19;;;;;;;2.72;1.50;;;25.30;59.60;;;;;;5026588;28;20037;-74
2021/06/03 09:49:46;;;;;;;1.40;1.30;;;25.40;59.50;;;;;;5034185;28;20053;-74
2021/06/03 09:52:17;;;;;;;1.27;1.17;;;25.50;59.60;;;;;;5033728;28;20022;-76
2021/06/03 09:54:56;;;;;;;1.30;1.20;;;25.60;59.70;;;;;;5034243;28;20047;-75
2021/06/03 09:57:28;;;;;;;1.20;1.10;;;25.70;59.60;;;;;;5034207;28;20025;-74
2021/06/03 10:00:00;;;;;;;1.15;1.05;;;25.80;59.60;;;;;;5034089;28;20033;-74
2021/06/03 10:02:25;;;;;;;1.90;1.30;;;25.90;59.50;;;;;;5034027;28;20047;-75
2021/06/03 10:04:55;;;;;;;1.60;1.50;;;25.90;59.60;;;;;;5033590;28;20100;-76
2021/06/03 10:07:23;;;;;;;2.45;1.60;;;25.90;59.60;;;;;;5033595;28;20032;-75
2021/06/03 10:10:10;;;;;;;1.27;1.17;;;25.80;59.90;;;;;;5033858;28;20051;-76
2021/06/03 10:12:42;;;;;;;1.40;1.20;;;25.80;59.80;;;;;;5033717;28;20021;-74
2021/06/03 10:15:14;;;;;;;1.40;1.30;;;25.70;59.90;;;;;;5016051;28;20029;-73
2021/06/03 10:17:51;;;;;;;1.58;1.38;;;25.60;59.90;;;;;;5033683;28;20013;-72
2021/06/03 10:20:20;;;;;;;1.23;1.13;;;25.60;60.00;;;;;;5015700;28;20054;-74
2021/06/03 10:22:47;;;;;;;;;;;25.60;60.00;;;;;;5015825;28;20022;-73
2021/06/03 10:25:21;;;;;;;1.30;1.20;;;25.60;59.90;;;;;;5033723;28;19905;-77
2021/06/03 10:27:48;;;;;;;1.27;1.17;;;25.70;59.80;;;;;;5033456;28;20055;-76
2021/06/03 10:30:24;;;;;;;1.05;0.95;;;25.80;59.60;;;;;;5015755;28;20076;-75
2021/06/03 10:32:52;;;;;;;0.63;0.63;;;26.10;59.40;;;;;;5033503;28;20025;-74
2021/06/03 10:35:26;;;;;;;2.38;1.70;;;26.30;59.30;;;;;;5033439;28;20025;-74
2021/06/03 10:37:53;;;;;;;1.77;1.40;;;26.50;59.00;;;;;;5033451;28;20029;-76
2021/06/03 10:40:30;;;;;;;2.25;1.60;;;26.50;58.90;;;;;;5033440;28;20064;-75
2021/06/03 10:42:56;;;;;;;1.92;1.45;;;26.30;59.10;;;;;;5033097;28;20497;-75
2021/06/03 10:45:25;;;;;;;1.73;1.58;;;26.10;59.60;;;;;;5033330;28;20033;-75
2021/06/03 10:47:51;;;;;;;1.77;1.50;;;25.90;59.90;;;;;;5033281;28;20029;-75
2021/06/03 10:50:20;;;;;;;1.90;1.60;;;25.70;60.10;;;;;;5032833;28;20049;-71
2021/06/03 10:52:47;;;;;;;1.95;1.60;;;25.60;60.30;;;;;;5033341;28;20021;-73
2021/06/03 10:55:25;;;;;;;1.50;1.25;;;25.50;60.40;;;;;;5032793;28;20103;-75
2021/06/03 10:57:55;;;;;;;1.67;1.25;;;25.50;60.40;;;;;;5033026;28;20386;-72
2021/06/03 11:00:42;;;;;;;1.80;1.50;;;25.60;60.50;;;;;;5033195;28;20053;-71
2021/06/03 11:03:09;;;;;;;1.23;1.10;;;25.50;60.40;;;;;;5015289;28;20032;-73
2021/06/03 11:05:43;;;;;;;1.13;1.13;;;25.40;60.60;;;;;;5032537;28;20163;-72
2021/06/03 11:08:25;;;;;;;2.92;1.70;;;25.30;60.80;;;;;;5032849;28;20378;-73
2021/06/03 11:10:52;;;;;;;1.77;1.45;;;25.10;61.30;;;;;;5015345;28;20037;-74
2021/06/03 11:13:19;;;;;;;1.30;1.20;;;24.60;62.40;;;;;;5033087;28;20382;-74
2021/06/03 11:16:04;;;;;;;1.83;1.63;;;24.00;63.90;;;;;;5033429;28;20516;-74
2021/06/03 11:18:45;;;;;;;1.42;1.10;;;23.40;65.40;;;;;;5034889;28;20042;-74
2021/06/03 11:21:32;;;;;;;1.10;1.00;;;23.00;67.00;;;;;;5036525;28;20033;-73
2021/06/03 11:24:00;;;;;;;1.58;1.38;;;22.60;67.90;;;;;;5037039;28;20516;-74
2021/06/03 11:26:40;;;;;;;1.30;1.20;;;22.50;68.80;;;;;;5037092;28;20021;-72
2021/06/03 11:29:26;;;;;;;1.50;1.25;;;22.50;69.00;;;;;;5036922;28;20036;-72
2021/06/03 11:32:06;;;;;;;1.52;1.23;;;22.50;69.20;;;;;;5037201;28;20021;-72
2021/06/03 11:34:43;;;;;;;1.50;1.40;;;22.50;69.40;;;;;;5036400;28;20029;-73
2021/06/03 11:37:10;;;;;;;1.55;1.42;;;22.70;69.60;;;;;;5036753;28;20057;-74
2021/06/03 11:39:44;;;;;;;1.40;1.30;;;23.00;69.30;;;;;;5036831;28;20481;-74
2021/06/03 11:42:30;;;;;;;2.05;1.40;;;23.20;69.30;;;;;;5036754;28;20072;-72
2021/06/03 11:45:07;;;;;;;1.60;1.50;;;23.20;69.50;;;;;;5036708;28;20021;-73
2021/06/03 11:47:41;;;;;;;1.60;1.50;;;23.10;70.00;;;;;;5037086;28;20017;-73
2021/06/03 11:50:27;;;;;;;1.42;1.33;;;23.20;70.30;;;;;;5036078;28;20049;-73
2021/06/03 11:52:52;;;;;;;1.50;1.40;;;23.50;70.10;;;;;;5036559;28;20071;-73
2021/06/03 11:55:38;;;;;;;2.42;1.90;;;23.70;70.10;;;;;;5036548;28;20029;-72
2021/06/03 11:58:26;;;;;;;1.70;1.60;;;23.80;70.10;;;;;;5036525;28;20036;-73
2021/06/03 12:00:55;;;;;;;1.50;1.40;;;23.90;70.20;;;;;;5036564;28;20041;-73
2021/06/03 12:03:39;;;;;;;1.65;1.55;;;23.80;70.50;;;;;;5035918;28;20041;-73
2021/06/03 12:06:12;;;;;;;1.67;1.55;;;23.80;70.70;;;;;;5036407;28;20036;-73
2021/06/03 12:08:48;;;;;;;1.50;1.40;;;23.90;70.70;;;;;;5036229;28;20021;-73
2021/06/03 12:11:18;;;;;;;1.55;1.45;;;24.00;71.00;;;;;;5036159;28;20057;-73
2021/06/03 12:13:59;;;;;;;1.45;1.33;;;24.20;71.10;;;;;;5036301;28;20021;-74
2021/06/03 12:16:58;;;;;;;1.42;1.27;;;24.50;70.60;;;;;;5036034;28;20040;-74
2021/06/03 12:19:33;;;;;;;1.30;1.20;;;24.50;70.70;;;;;;5012332;28;20041;-74
2021/06/03 12:22:04;;;;;;;1.40;1.30;;;24.50;71.00;;;;;;5016033;28;20037;-74
2021/06/03 12:24:37;;;;;;;1.50;1.38;;;24.80;71.00;;;;;;5016230;28;20025;-75
2021/06/03 12:27:04;;;;;;;1.55;1.38;;;25.00;70.40;;;;;;5015638;28;20421;-75
2021/06/03 12:29:31;;;;;;;1.40;1.30;;;25.00;70.40;;;;;;5015812;28;20018;-75
2021/06/03 12:31:57;;;;;;;1.50;1.40;;;24.90;70.50;;;;;;5015592;28;20022;-73
2021/06/03 12:34:25;;;;;;;1.75;1.38;;;24.80;70.70;;;;;;5015841;28;20018;-75
2021/06/03 12:36:52;;;;;;;1.10;1.05;;;24.90;71.40;;;;;;5015965;28;20049;-73
2021/06/03 12:39:18;;;;;;;1.35;1.25;;;25.00;70.60;;;;;;5015880;28;20096;-74
2021/06/03 12:41:44;;;;;;;1.50;1.40;;;24.90;70.90;;;;;;5015658;28;20105;-73
2021/06/03 12:44:12;;;;;;;1.30;1.20;;;24.90;71.20;;;;;;5015848;28;20390;-72
2021/06/03 12:46:40;;;;;;;1.38;1.20;;;24.80;71.10;;;;;;5015298;28;20037;-72
2021/06/03 12:49:33;;;;;;;1.10;0.97;;;24.70;71.30;;;;;;5015967;28;20018;-73
2021/06/03 12:52:00;;;;;;;1.52;1.38;;;24.80;71.20;;;;;;5013652;28;20101;-72
2021/06/03 12:54:33;;;;;;;1.55;1.45;;;24.80;70.80;;;;;;5015548;28;20037;-72
2021/06/03 12:57:02;;;;;;;1.50;1.40;;;24.40;71.30;;;;;;5015524;28;20109;-72
2021/06/03 12:59:30;;;;;;;1.58;1.40;;;24.10;72.00;;;;;;5015735;28;20037;-72
2021/06/03 13:02:05;;;;;;;1.67;1.58;;;24.00;72.10;;;;;;5014900;28;20022;-73